Current Weather

Chicago Executive

Wheeling, Illinois (KPWK)

Report from: Sunday, February 5, 2023 10:52 PM CST
Current time: Sunday, February 5, 2023 11:27 PM CST

Nearby weather
Weather history
Weather forecast

Temperature-2.8°C (27.0°F)
Dew point-5.6°C (21.9°F)
Winds Calm
Visibility7 mi. (11.3 km)
Clouds Sky clear
Altimeter30.15 in.Hg (1021 mB)
Relative humidity81 %
Density altitude-2,390 ft. (-728 m)
Sea-level pressure102.2 kPa (1022 mB, 30.17 in.Hg)
Remarks Fully automated report
Automated weather observing station with precipitation discriminator
Flight conditions Visual Meteorological Conditions
Raw dataKPWK 060452Z AUTO 00000KT 7SM CLR M03/M06 A3015 RMK AO2 SLP217 T10281056
An error has occurred. This application may no longer respond until reloaded. Reload 🗙